createdAt,value
2022-10-28T00:01:22.402Z,10.80
2022-10-28T00:03:51.977Z,10.80
2022-10-28T00:06:22.587Z,10.90
2022-10-28T00:08:50.273Z,10.80
2022-10-28T00:11:23.365Z,10.90
2022-10-28T00:13:52.481Z,10.90
2022-10-28T00:16:21.905Z,10.90
2022-10-28T00:18:49.223Z,10.90
2022-10-28T00:21:19.912Z,10.90
2022-10-28T00:23:46.845Z,10.80
2022-10-28T00:26:16.627Z,10.80
2022-10-28T00:28:45.640Z,10.80
2022-10-28T00:31:13.883Z,10.80
2022-10-28T00:33:40.921Z,10.90
2022-10-28T00:36:19.342Z,10.80
2022-10-28T00:38:47.891Z,10.80
2022-10-28T00:41:30.859Z,10.80
2022-10-28T00:44:00.216Z,10.70
2022-10-28T00:46:59.626Z,10.70
2022-10-28T00:49:32.452Z,10.70
2022-10-28T00:52:08.183Z,10.80
2022-10-28T00:54:37.365Z,10.70
2022-10-28T00:57:09.752Z,10.80
2022-10-28T00:59:39.945Z,10.70
2022-10-28T01:02:07.295Z,10.70
2022-10-28T01:04:34.234Z,10.60
2022-10-28T01:07:02.262Z,10.70
2022-10-28T01:09:29.107Z,10.60
2022-10-28T01:11:58.887Z,10.60
2022-10-28T01:14:51.027Z,10.60
2022-10-28T01:17:26.607Z,10.70
2022-10-28T01:20:14.734Z,10.70
2022-10-28T01:23:00.261Z,10.60
2022-10-28T01:25:51.180Z,10.50
2022-10-28T01:28:38.984Z,10.60
2022-10-28T01:31:30.713Z,10.60
2022-10-28T01:34:20.079Z,10.60
2022-10-28T01:37:11.686Z,10.60
2022-10-28T01:40:05.303Z,10.60
2022-10-28T01:42:53.315Z,10.50
2022-10-28T01:45:28.950Z,10.60
2022-10-28T01:47:58.086Z,10.60
2022-10-28T01:50:31.304Z,10.50
2022-10-28T01:53:03.321Z,10.60
2022-10-28T01:55:36.201Z,10.50
2022-10-28T01:58:04.951Z,10.60
2022-10-28T02:00:32.869Z,10.60
2022-10-28T02:03:00.102Z,10.70
2022-10-28T02:05:45.507Z,10.60
2022-10-28T02:08:18.559Z,10.50
2022-10-28T02:11:00.187Z,10.50
2022-10-28T02:13:55.015Z,10.50
2022-10-28T02:16:39.071Z,10.60
2022-10-28T02:19:24.659Z,10.60
2022-10-28T02:22:09.603Z,10.60
2022-10-28T02:24:52.526Z,10.60
2022-10-28T02:27:31.504Z,10.60
2022-10-28T02:30:10.801Z,10.50
2022-10-28T02:32:45.159Z,10.60
2022-10-28T02:35:20.630Z,10.50
2022-10-28T02:37:50.016Z,10.50
2022-10-28T02:40:23.523Z,10.50
2022-10-28T02:43:00.322Z,10.50
2022-10-28T02:45:34.665Z,10.40
2022-10-28T02:48:11.099Z,10.50
2022-10-28T02:50:41.382Z,10.40
2022-10-28T02:53:23.021Z,10.40
2022-10-28T02:55:54.072Z,10.50
2022-10-28T02:58:21.502Z,10.50
2022-10-28T03:00:48.554Z,10.40
2022-10-28T03:03:15.568Z,10.50
2022-10-28T03:05:42.389Z,10.40
2022-10-28T03:08:09.243Z,10.40
2022-10-28T03:10:36.082Z,10.40
2022-10-28T03:13:02.906Z,10.40
2022-10-28T03:15:29.752Z,10.30
2022-10-28T03:17:56.568Z,10.40
2022-10-28T03:20:23.369Z,10.30
2022-10-28T03:22:50.344Z,10.40
2022-10-28T03:25:17.253Z,10.40
2022-10-28T03:27:44.082Z,10.40
2022-10-28T03:30:11.160Z,10.30
2022-10-28T03:32:40.941Z,10.40
2022-10-28T03:35:08.184Z,10.40
2022-10-28T03:37:35.019Z,10.40
2022-10-28T03:40:02.506Z,10.40
2022-10-28T03:42:29.537Z,10.30
2022-10-28T03:44:56.393Z,10.30
2022-10-28T03:47:23.377Z,10.30
2022-10-28T03:49:50.192Z,10.30
2022-10-28T03:52:17.263Z,10.30
2022-10-28T03:54:44.031Z,10.30
2022-10-28T03:57:10.829Z,10.30
2022-10-28T03:59:37.686Z,10.30
2022-10-28T04:02:04.617Z,10.30
2022-10-28T04:04:31.537Z,10.30
2022-10-28T04:06:58.378Z,10.20
2022-10-28T04:09:25.151Z,10.30
2022-10-28T04:11:52.017Z,10.30
2022-10-28T04:14:19.170Z,10.20
2022-10-28T04:16:45.986Z,10.20
2022-10-28T04:19:12.819Z,10.20
2022-10-28T04:21:39.651Z,10.30
2022-10-28T04:24:06.555Z,10.30
2022-10-28T04:26:33.352Z,10.20
2022-10-28T04:29:00.106Z,10.20
2022-10-28T04:31:26.856Z,10.20
2022-10-28T04:33:53.622Z,10.20
2022-10-28T04:36:20.429Z,10.20
2022-10-28T04:38:47.242Z,10.10
2022-10-28T04:41:14.941Z,10.10
2022-10-28T04:43:41.718Z,10.10
2022-10-28T04:46:08.472Z,10.10
2022-10-28T04:48:35.799Z,10.00
2022-10-28T04:51:02.712Z,10.00
2022-10-28T04:53:29.560Z,10.10
2022-10-28T04:55:59.984Z,10.10
2022-10-28T04:58:27.120Z,10.20
2022-10-28T05:00:53.967Z,10.10
2022-10-28T05:03:20.770Z,10.10
2022-10-28T05:05:48.142Z,10.00
2022-10-28T05:08:15.081Z,10.00
2022-10-28T05:10:41.955Z,10.00
2022-10-28T05:13:08.699Z,10.00
2022-10-28T05:15:35.530Z,10.00
2022-10-28T05:18:02.347Z,10.00
2022-10-28T05:20:30.250Z,10.00
2022-10-28T05:22:57.450Z,10.00
2022-10-28T05:25:24.588Z,10.00
2022-10-28T05:27:51.345Z,9.90
2022-10-28T05:30:18.877Z,9.80
2022-10-28T05:32:47.431Z,9.90
2022-10-28T05:35:16.084Z,9.80
2022-10-28T05:37:43.745Z,9.90
2022-10-28T05:40:11.277Z,10.00
2022-10-28T05:42:42.864Z,10.10
2022-10-28T05:45:10.840Z,9.90
2022-10-28T05:47:44.510Z,9.90
2022-10-28T05:50:12.542Z,9.90
2022-10-28T05:52:39.296Z,9.90
2022-10-28T05:55:06.637Z,9.90
2022-10-28T05:57:36.481Z,9.90
2022-10-28T06:00:04.668Z,9.90
2022-10-28T06:02:39.226Z,10.00
2022-10-28T06:05:06.253Z,10.00
2022-10-28T06:07:33.095Z,9.90
2022-10-28T06:09:59.848Z,9.90
2022-10-28T06:12:25.299Z,9.90
2022-10-28T06:14:52.089Z,9.90
2022-10-28T06:17:18.895Z,9.90
2022-10-28T06:19:45.641Z,10.00
2022-10-28T06:22:12.449Z,9.90
2022-10-28T06:24:39.244Z,9.90
2022-10-28T06:27:06.171Z,10.00
2022-10-28T06:29:33.365Z,10.00
2022-10-28T06:32:00.170Z,10.00
2022-10-28T06:34:26.948Z,10.10
2022-10-28T06:36:53.799Z,10.00
2022-10-28T06:39:20.623Z,10.00
2022-10-28T06:41:47.447Z,10.00
2022-10-28T06:44:14.468Z,10.10
2022-10-28T06:46:42.761Z,10.10
2022-10-28T06:49:09.608Z,10.10
2022-10-28T06:51:36.435Z,10.20
2022-10-28T06:54:03.254Z,10.20
2022-10-28T06:56:30.106Z,10.10
2022-10-28T06:58:57.550Z,10.10
2022-10-28T07:01:24.417Z,10.20
2022-10-28T07:03:51.353Z,10.20
2022-10-28T07:06:18.334Z,10.20
2022-10-28T07:08:45.108Z,10.10
2022-10-28T07:11:11.956Z,10.10
2022-10-28T07:13:38.770Z,10.10
2022-10-28T07:16:05.933Z,10.20
2022-10-28T07:18:32.768Z,10.10
2022-10-28T07:21:00.536Z,10.20
2022-10-28T07:23:28.265Z,10.30
2022-10-28T07:25:56.154Z,10.30
2022-10-28T07:28:24.190Z,10.30
2022-10-28T07:30:51.193Z,10.30
2022-10-28T07:33:18.224Z,10.30
2022-10-28T07:35:45.173Z,10.40
2022-10-28T07:38:12.190Z,10.50
2022-10-28T07:40:39.021Z,10.50
2022-10-28T07:43:05.839Z,10.50
2022-10-28T07:45:33.993Z,10.40
2022-10-28T07:48:00.794Z,10.30
2022-10-28T07:50:27.820Z,10.50
2022-10-28T07:52:54.933Z,10.50
2022-10-28T07:55:21.953Z,10.40
2022-10-28T07:57:49.201Z,10.40
2022-10-28T08:00:16.340Z,10.50
2022-10-28T08:02:43.182Z,10.50
2022-10-28T08:05:10.113Z,10.60
2022-10-28T08:07:38.775Z,10.50
2022-10-28T08:10:07.077Z,10.50
2022-10-28T08:12:34.301Z,10.60
2022-10-28T08:15:01.250Z,10.70
2022-10-28T08:17:28.148Z,10.70
2022-10-28T08:19:54.967Z,10.70
2022-10-28T08:22:21.796Z,10.60
2022-10-28T08:24:48.605Z,10.50
2022-10-28T08:27:15.499Z,10.60
2022-10-28T08:29:42.461Z,10.60
2022-10-28T08:32:09.530Z,10.70
2022-10-28T08:34:39.275Z,10.70
2022-10-28T08:37:09.505Z,10.60
2022-10-28T08:39:36.383Z,10.60
2022-10-28T08:42:09.356Z,10.70
2022-10-28T08:44:39.203Z,10.90
2022-10-28T08:47:24.275Z,10.80
2022-10-28T08:50:03.929Z,10.80
2022-10-28T08:53:05.667Z,10.80
2022-10-28T08:55:41.063Z,10.70
2022-10-28T08:58:13.665Z,10.80
2022-10-28T09:00:42.608Z,10.80
2022-10-28T09:03:16.055Z,10.90
2022-10-28T09:05:45.806Z,10.90
2022-10-28T09:08:24.354Z,10.90
2022-10-28T09:11:09.349Z,10.90
2022-10-28T09:14:01.367Z,10.90
2022-10-28T09:16:41.354Z,11.00
2022-10-28T09:19:23.163Z,11.10
2022-10-28T09:22:21.164Z,11.10
2022-10-28T09:24:53.915Z,11.00
2022-10-28T09:27:35.650Z,11.00
2022-10-28T09:30:46.567Z,11.10
2022-10-28T09:33:28.829Z,11.20
2022-10-28T09:35:57.060Z,11.20
2022-10-28T09:38:37.758Z,11.10
2022-10-28T09:41:25.457Z,11.20
2022-10-28T09:44:05.746Z,11.30
2022-10-28T09:46:36.238Z,11.30
2022-10-28T09:49:11.767Z,11.30
2022-10-28T09:51:38.604Z,11.20
2022-10-28T09:54:05.553Z,11.20
2022-10-28T09:56:32.404Z,11.30
2022-10-28T09:59:01.891Z,11.30
2022-10-28T10:01:32.871Z,11.30
2022-10-28T10:03:59.941Z,11.20
2022-10-28T10:06:32.476Z,11.20
2022-10-28T10:09:00.519Z,11.30
2022-10-28T10:11:30.166Z,11.30
2022-10-28T10:14:00.536Z,11.20
2022-10-28T10:16:40.615Z,11.30
2022-10-28T10:19:09.834Z,11.30
2022-10-28T10:21:48.079Z,11.30
2022-10-28T10:24:25.363Z,11.30
2022-10-28T10:26:53.247Z,11.40
2022-10-28T10:29:21.630Z,11.40
2022-10-28T10:31:48.964Z,11.50
2022-10-28T10:34:26.874Z,11.40
2022-10-28T10:36:56.165Z,11.40
2022-10-28T10:39:37.316Z,11.40
2022-10-28T10:42:15.884Z,11.30
2022-10-28T10:44:43.806Z,11.40
2022-10-28T10:47:10.619Z,11.40
2022-10-28T10:49:37.603Z,11.40
2022-10-28T10:52:20.479Z,11.40
2022-10-28T10:55:00.627Z,11.40
2022-10-28T10:57:28.281Z,11.40
2022-10-28T10:59:56.878Z,11.40
2022-10-28T11:02:30.846Z,11.40
2022-10-28T11:05:04.270Z,11.40
2022-10-28T11:07:32.562Z,11.40
2022-10-28T11:10:00.631Z,11.60
2022-10-28T11:12:28.944Z,11.50
2022-10-28T11:14:58.774Z,11.50
2022-10-28T11:17:28.384Z,11.50
2022-10-28T11:19:57.472Z,11.50
2022-10-28T11:22:27.482Z,11.50
2022-10-28T11:25:04.680Z,11.60
2022-10-28T11:28:04.410Z,11.70
2022-10-28T11:30:53.131Z,11.70
2022-10-28T11:33:30.369Z,11.70
2022-10-28T11:36:00.404Z,11.70
2022-10-28T11:38:48.924Z,11.80
2022-10-28T11:41:27.776Z,11.80
2022-10-28T11:44:00.881Z,11.70
2022-10-28T11:46:42.842Z,11.70
2022-10-28T11:49:25.278Z,11.80
2022-10-28T11:52:30.031Z,11.90
2022-10-28T11:55:17.550Z,11.90
2022-10-28T11:57:56.952Z,11.80
2022-10-28T12:00:28.045Z,11.80
2022-10-28T12:03:04.967Z,11.80
2022-10-28T12:05:41.024Z,11.70
2022-10-28T12:08:42.398Z,11.70
2022-10-28T12:11:27.356Z,11.70
2022-10-28T12:14:15.287Z,11.60
2022-10-28T12:16:51.774Z,11.80
2022-10-28T12:19:38.429Z,11.80
2022-10-28T12:22:31.553Z,11.80
2022-10-28T12:25:06.605Z,11.80
2022-10-28T12:27:45.388Z,11.70
2022-10-28T12:30:22.816Z,11.60
2022-10-28T12:33:04.541Z,11.80
2022-10-28T12:35:36.341Z,11.80
2022-10-28T12:38:41.356Z,11.90
2022-10-28T12:41:18.734Z,12.00
2022-10-28T12:44:05.837Z,12.00
2022-10-28T12:47:01.888Z,11.90
2022-10-28T12:49:47.763Z,11.90
2022-10-28T12:52:25.295Z,11.90
2022-10-28T12:54:56.877Z,12.00
2022-10-28T12:57:25.202Z,11.90
2022-10-28T13:00:06.715Z,11.90
2022-10-28T13:03:05.429Z,11.90
2022-10-28T13:05:42.667Z,11.90
2022-10-28T13:08:46.742Z,11.90
2022-10-28T13:11:19.822Z,11.90
2022-10-28T13:14:02.180Z,11.90
2022-10-28T13:16:53.323Z,11.80
2022-10-28T13:19:55.136Z,11.80
2022-10-28T13:22:58.796Z,11.80
2022-10-28T13:25:47.238Z,11.80
2022-10-28T13:28:16.846Z,11.80
2022-10-28T13:30:59.353Z,11.90
2022-10-28T13:33:28.602Z,11.80
2022-10-28T13:36:09.078Z,11.80
2022-10-28T13:38:36.526Z,11.90
2022-10-28T13:41:06.237Z,11.90
2022-10-28T13:43:51.564Z,11.90
2022-10-28T13:46:56.103Z,11.80
2022-10-28T13:49:30.701Z,11.80
2022-10-28T13:52:21.160Z,11.80
2022-10-28T13:54:48.327Z,11.70
2022-10-28T13:57:48.726Z,11.80
2022-10-28T14:00:18.763Z,11.90
2022-10-28T14:03:03.699Z,11.80
2022-10-28T14:05:36.429Z,11.80
2022-10-28T14:08:17.622Z,11.90
2022-10-28T14:10:59.965Z,11.80
2022-10-28T14:13:27.646Z,11.80
2022-10-28T14:16:30.840Z,11.80
2022-10-28T14:19:06.380Z,11.80
2022-10-28T14:22:08.716Z,11.80
2022-10-28T14:24:36.635Z,11.80
2022-10-28T14:27:06.841Z,11.80
2022-10-28T14:30:16.495Z,11.80
2022-10-28T14:32:49.008Z,11.80
2022-10-28T14:35:15.830Z,11.80
2022-10-28T14:38:01.462Z,11.80
2022-10-28T14:40:46.923Z,11.70
2022-10-28T14:43:31.836Z,11.80
2022-10-28T14:46:22.829Z,11.80
2022-10-28T14:48:51.541Z,11.70
2022-10-28T14:51:25.168Z,11.70
2022-10-28T14:53:57.044Z,11.60
2022-10-28T14:56:31.086Z,11.50
2022-10-28T14:59:19.783Z,11.60
2022-10-28T15:02:02.449Z,11.70
2022-10-28T15:04:30.207Z,11.60
2022-10-28T15:06:57.483Z,11.60
2022-10-28T15:09:28.463Z,11.60
2022-10-28T15:12:05.632Z,11.60
2022-10-28T15:14:39.019Z,11.50
2022-10-28T15:17:12.047Z,11.50
2022-10-28T15:19:39.204Z,11.50
2022-10-28T15:22:13.919Z,11.40
2022-10-28T15:24:44.595Z,11.40
2022-10-28T15:27:14.355Z,11.40
2022-10-28T15:29:42.709Z,11.40
2022-10-28T15:32:21.573Z,11.40
2022-10-28T15:34:49.040Z,11.40
2022-10-28T15:37:17.643Z,11.50
2022-10-28T15:39:45.189Z,11.60
2022-10-28T15:42:39.985Z,11.50
2022-10-28T15:45:15.911Z,11.40
2022-10-28T15:47:45.857Z,11.30
2022-10-28T15:50:15.465Z,11.40
2022-10-28T15:52:47.131Z,11.40
2022-10-28T15:55:23.712Z,11.40
2022-10-28T15:58:30.925Z,11.40
2022-10-28T16:00:58.871Z,11.40
2022-10-28T16:03:47.167Z,11.40
2022-10-28T16:06:30.377Z,11.40
2022-10-28T16:09:01.402Z,11.40
2022-10-28T16:11:29.860Z,11.40
2022-10-28T16:13:57.234Z,11.30
2022-10-28T16:16:31.146Z,11.30
2022-10-28T16:19:10.467Z,11.30
2022-10-28T16:21:38.782Z,11.40
2022-10-28T16:24:05.877Z,11.30
2022-10-28T16:26:32.791Z,11.30
2022-10-28T16:28:59.980Z,11.30
2022-10-28T16:31:29.746Z,11.30
2022-10-28T16:33:58.436Z,11.30
2022-10-28T16:36:25.304Z,11.20
2022-10-28T16:38:52.115Z,11.20
2022-10-28T16:41:19.498Z,11.20
2022-10-28T16:43:46.738Z,11.20
2022-10-28T16:46:14.492Z,11.20
2022-10-28T16:48:41.847Z,11.20
2022-10-28T16:51:16.555Z,11.20
2022-10-28T16:53:44.079Z,11.10
2022-10-28T16:56:14.214Z,11.10
2022-10-28T16:58:43.792Z,11.10
2022-10-28T17:01:12.065Z,11.10
2022-10-28T17:03:40.387Z,11.10
2022-10-28T17:06:08.677Z,11.10
2022-10-28T17:09:01.949Z,11.20
2022-10-28T17:11:22.342Z,11.10
2022-10-28T17:13:49.231Z,11.10
2022-10-28T17:16:16.131Z,11.10
2022-10-28T17:18:42.933Z,11.00
2022-10-28T17:21:09.739Z,10.90
2022-10-28T17:23:36.544Z,11.00
2022-10-28T17:26:03.425Z,11.00
2022-10-28T17:28:31.043Z,11.00
2022-10-28T17:31:05.996Z,11.10
2022-10-28T17:33:33.562Z,11.10
2022-10-28T17:36:05.394Z,11.00
2022-10-28T17:38:32.956Z,10.90
2022-10-28T17:41:00.354Z,11.00
2022-10-28T17:43:27.500Z,10.90
2022-10-28T17:46:06.885Z,10.90
2022-10-28T17:48:34.410Z,10.90
2022-10-28T17:51:02.313Z,11.00
2022-10-28T17:53:29.293Z,11.00
2022-10-28T17:56:00.706Z,11.00
2022-10-28T17:58:28.617Z,11.00
2022-10-28T18:01:07.234Z,10.90
2022-10-28T18:03:38.105Z,10.90
2022-10-28T18:06:07.732Z,10.90
2022-10-28T18:08:36.434Z,10.90
2022-10-28T18:11:05.052Z,10.90
2022-10-28T18:13:37.463Z,10.90
2022-10-28T18:16:05.903Z,10.90
2022-10-28T18:18:37.463Z,10.90
2022-10-28T18:21:08.832Z,11.00
2022-10-28T18:23:35.907Z,10.90
2022-10-28T18:26:12.286Z,11.00
2022-10-28T18:28:40.775Z,11.00
2022-10-28T18:31:11.350Z,10.90
2022-10-28T18:33:39.323Z,11.00
2022-10-28T18:36:11.200Z,11.00
2022-10-28T18:38:39.157Z,10.90
2022-10-28T18:41:12.356Z,10.90
2022-10-28T18:43:40.370Z,10.90
2022-10-28T18:46:16.324Z,11.00
2022-10-28T18:48:43.444Z,10.90
2022-10-28T18:51:12.836Z,10.90
2022-10-28T18:53:46.233Z,10.90
2022-10-28T18:56:16.165Z,11.00
2022-10-28T18:58:43.985Z,10.90
2022-10-28T19:01:13.546Z,10.90
2022-10-28T19:03:42.018Z,10.90
2022-10-28T19:06:14.861Z,10.90
2022-10-28T19:08:44.082Z,10.90
2022-10-28T19:11:12.829Z,10.90
2022-10-28T19:13:41.654Z,10.80
2022-10-28T19:16:09.480Z,10.90
2022-10-28T19:18:36.741Z,10.90
2022-10-28T19:21:06.043Z,10.90
2022-10-28T19:23:33.811Z,10.90
2022-10-28T19:26:00.890Z,10.90
2022-10-28T19:28:28.278Z,10.90
2022-10-28T19:31:03.240Z,10.90
2022-10-28T19:33:34.067Z,10.90
2022-10-28T19:36:29.258Z,10.90
2022-10-28T19:38:57.809Z,10.90
2022-10-28T19:41:30.687Z,10.80
2022-10-28T19:44:02.444Z,10.80
2022-10-28T19:46:31.801Z,10.80
2022-10-28T19:49:00.391Z,10.80
2022-10-28T19:51:30.332Z,10.70
2022-10-28T19:53:59.463Z,10.80
2022-10-28T19:56:28.241Z,10.70
2022-10-28T19:59:00.139Z,10.70
2022-10-28T20:01:29.267Z,10.70
2022-10-28T20:03:56.790Z,10.70
2022-10-28T20:06:31.600Z,10.70
2022-10-28T20:08:59.331Z,10.70
2022-10-28T20:11:29.404Z,10.70
2022-10-28T20:14:01.634Z,10.70
2022-10-28T20:16:29.149Z,10.70
2022-10-28T20:18:57.593Z,10.60
2022-10-28T20:21:26.815Z,10.70
2022-10-28T20:23:55.678Z,10.70
2022-10-28T20:26:27.693Z,10.70
2022-10-28T20:28:55.598Z,10.60
2022-10-28T20:31:25.133Z,10.60
2022-10-28T20:33:57.422Z,10.60
2022-10-28T20:36:24.300Z,10.60
2022-10-28T20:39:03.708Z,10.70
2022-10-28T20:41:32.850Z,10.70
2022-10-28T20:43:59.977Z,10.60
2022-10-28T20:46:27.031Z,10.60
2022-10-28T20:48:54.351Z,10.60
2022-10-28T20:51:22.422Z,10.60
2022-10-28T20:53:49.388Z,10.60
2022-10-28T20:56:23.599Z,10.60
2022-10-28T20:58:51.435Z,10.60
2022-10-28T21:01:35.839Z,10.70
2022-10-28T21:04:05.644Z,10.70
2022-10-28T21:06:32.939Z,10.70
2022-10-28T21:08:59.885Z,10.70
2022-10-28T21:11:28.357Z,10.60
2022-10-28T21:14:00.537Z,10.60
2022-10-28T21:16:28.962Z,10.60
2022-10-28T21:18:56.312Z,10.60
2022-10-28T21:21:24.412Z,10.70
2022-10-28T21:23:51.575Z,10.70
2022-10-28T21:26:18.965Z,10.70
2022-10-28T21:28:52.663Z,10.80
2022-10-28T21:31:20.571Z,10.80
2022-10-28T21:36:21.822Z,10.80
2022-10-28T21:38:52.604Z,10.80
2022-10-28T21:41:20.613Z,10.80
2022-10-28T21:43:52.420Z,10.70
2022-10-28T21:46:21.394Z,10.70
2022-10-28T21:48:48.504Z,10.70
2022-10-28T21:51:16.582Z,10.70
2022-10-28T21:53:44.695Z,10.80
2022-10-28T21:56:17.437Z,10.80
2022-10-28T21:58:45.512Z,10.80
2022-10-28T22:01:15.224Z,10.70
2022-10-28T22:03:42.416Z,10.70
2022-10-28T22:06:09.540Z,10.70
2022-10-28T22:08:36.418Z,10.70
2022-10-28T22:11:06.663Z,10.60
2022-10-28T22:13:34.585Z,10.60
2022-10-28T22:16:04.926Z,10.70
2022-10-28T22:18:33.749Z,10.70
2022-10-28T22:21:24.355Z,10.70
2022-10-28T22:23:51.552Z,10.80
2022-10-28T22:26:23.634Z,10.80
2022-10-28T22:28:51.051Z,10.80
2022-10-28T22:31:23.248Z,10.70
2022-10-28T22:33:50.801Z,10.70
2022-10-28T22:36:20.539Z,10.80
2022-10-28T22:38:47.771Z,10.80
2022-10-28T22:41:16.197Z,10.70
2022-10-28T22:43:55.466Z,10.70
2022-10-28T22:46:24.413Z,10.70
2022-10-28T22:48:51.347Z,10.80
2022-10-28T22:51:18.419Z,10.80
2022-10-28T22:53:45.770Z,10.80
2022-10-28T22:56:19.041Z,10.80
2022-10-28T22:58:46.480Z,10.70
2022-10-28T23:01:18.539Z,10.70
2022-10-28T23:03:47.297Z,10.60
2022-10-28T23:06:16.029Z,10.60
2022-10-28T23:08:43.960Z,10.60
2022-10-28T23:11:11.902Z,10.70
2022-10-28T23:13:39.125Z,10.70
2022-10-28T23:16:08.911Z,10.70
2022-10-28T23:18:36.316Z,10.70
2022-10-28T23:21:05.008Z,10.70
2022-10-28T23:23:32.049Z,10.70
2022-10-28T23:25:58.877Z,10.70
2022-10-28T23:28:25.848Z,10.70
2022-10-28T23:30:52.809Z,10.60
2022-10-28T23:33:19.677Z,10.70
2022-10-28T23:35:54.475Z,10.70
2022-10-28T23:38:21.867Z,10.70
2022-10-28T23:41:03.969Z,10.70
2022-10-28T23:43:31.700Z,10.70
2022-10-28T23:45:59.267Z,10.60
2022-10-28T23:48:27.201Z,10.70
2022-10-28T23:50:54.682Z,10.70
2022-10-28T23:53:21.930Z,10.70
2022-10-28T23:55:49.954Z,10.60
2022-10-28T23:58:18.333Z,10.70
